sensor_id;sensor_type;location;lat;lon;timestamp;P1;durP1;ratioP1;P2;durP2;ratioP2
62610;SDS011;48683;48.084;17.272;2022-07-15T00:01:07;1.10;;;1.07;;
62610;SDS011;48683;48.084;17.272;2022-07-15T00:03:33;1.60;;;1.30;;
62610;SDS011;48683;48.084;17.272;2022-07-15T00:05:58;4.07;;;1.13;;
62610;SDS011;48683;48.084;17.272;2022-07-15T00:08:23;1.00;;;1.00;;
62610;SDS011;48683;48.084;17.272;2022-07-15T00:10:49;1.20;;;1.10;;
62610;SDS011;48683;48.084;17.272;2022-07-15T00:13:14;1.50;;;1.30;;
62610;SDS011;48683;48.084;17.272;2022-07-15T00:15:40;3.63;;;1.10;;
62610;SDS011;48683;48.084;17.272;2022-07-15T00:18:05;1.50;;;1.40;;
62610;SDS011;48683;48.084;17.272;2022-07-15T00:20:31;2.03;;;1.37;;
62610;SDS011;48683;48.084;17.272;2022-07-15T00:23:00;2.53;;;1.30;;
62610;SDS011;48683;48.084;17.272;2022-07-15T00:25:29;1.48;;;1.00;;
62610;SDS011;48683;48.084;17.272;2022-07-15T00:27:56;3.03;;;1.10;;
62610;SDS011;48683;48.084;17.272;2022-07-15T00:30:24;1.90;;;1.20;;
62610;SDS011;48683;48.084;17.272;2022-07-15T00:32:54;2.83;;;0.90;;
62610;SDS011;48683;48.084;17.272;2022-07-15T00:35:19;2.50;;;1.20;;
62610;SDS011;48683;48.084;17.272;2022-07-15T00:37:44;3.17;;;1.30;;
62610;SDS011;48683;48.084;17.272;2022-07-15T00:40:10;1.37;;;1.27;;
62610;SDS011;48683;48.084;17.272;2022-07-15T00:42:37;2.10;;;1.17;;
62610;SDS011;48683;48.084;17.272;2022-07-15T00:45:09;2.53;;;1.00;;
62610;SDS011;48683;48.084;17.272;2022-07-15T00:47:46;2.17;;;1.15;;
62610;SDS011;48683;48.084;17.272;2022-07-15T00:50:14;2.22;;;1.10;;
62610;SDS011;48683;48.084;17.272;2022-07-15T00:52:41;1.75;;;1.00;;
62610;SDS011;48683;48.084;17.272;2022-07-15T00:55:10;1.20;;;1.10;;
62610;SDS011;48683;48.084;17.272;2022-07-15T00:57:37;1.40;;;1.20;;
62610;SDS011;48683;48.084;17.272;2022-07-15T01:00:05;1.27;;;1.20;;
62610;SDS011;48683;48.084;17.272;2022-07-15T01:02:33;2.08;;;1.05;;
62610;SDS011;48683;48.084;17.272;2022-07-15T01:04:59;2.10;;;1.20;;
62610;SDS011;48683;48.084;17.272;2022-07-15T01:07:28;1.48;;;1.10;;
62610;SDS011;48683;48.084;17.272;2022-07-15T01:09:54;1.20;;;1.10;;
62610;SDS011;48683;48.084;17.272;2022-07-15T01:12:19;1.30;;;1.20;;
62610;SDS011;48683;48.084;17.272;2022-07-15T01:14:45;3.03;;;1.63;;
62610;SDS011;48683;48.084;17.272;2022-07-15T01:17:10;1.17;;;1.07;;
62610;SDS011;48683;48.084;17.272;2022-07-15T01:19:36;1.27;;;1.17;;
62610;SDS011;48683;48.084;17.272;2022-07-15T01:22:03;1.50;;;1.27;;
62610;SDS011;48683;48.084;17.272;2022-07-15T01:24:32;1.77;;;1.60;;
62610;SDS011;48683;48.084;17.272;2022-07-15T01:26:57;4.50;;;1.60;;
62610;SDS011;48683;48.084;17.272;2022-07-15T01:29:22;1.70;;;1.20;;
62610;SDS011;48683;48.084;17.272;2022-07-15T01:31:48;2.20;;;1.40;;
62610;SDS011;48683;48.084;17.272;2022-07-15T01:34:13;1.50;;;1.40;;
62610;SDS011;48683;48.084;17.272;2022-07-15T01:36:38;2.00;;;1.70;;
62610;SDS011;48683;48.084;17.272;2022-07-15T01:39:04;1.43;;;1.23;;
62610;SDS011;48683;48.084;17.272;2022-07-15T01:41:29;2.23;;;1.63;;
62610;SDS011;48683;48.084;17.272;2022-07-15T01:43:54;2.10;;;1.93;;
62610;SDS011;48683;48.084;17.272;2022-07-15T01:46:20;4.27;;;1.70;;
62610;SDS011;48683;48.084;17.272;2022-07-15T01:48:45;2.37;;;2.00;;
62610;SDS011;48683;48.084;17.272;2022-07-15T01:51:29;2.33;;;1.75;;
62610;SDS011;48683;48.084;17.272;2022-07-15T01:53:55;2.10;;;1.90;;
62610;SDS011;48683;48.084;17.272;2022-07-15T01:56:20;3.47;;;2.00;;
62610;SDS011;48683;48.084;17.272;2022-07-15T01:58:46;4.03;;;2.33;;
62610;SDS011;48683;48.084;17.272;2022-07-15T02:01:11;2.57;;;1.90;;
62610;SDS011;48683;48.084;17.272;2022-07-15T02:03:37;3.00;;;2.00;;
62610;SDS011;48683;48.084;17.272;2022-07-15T02:06:02;3.17;;;2.10;;
62610;SDS011;48683;48.084;17.272;2022-07-15T02:08:28;3.03;;;2.33;;
62610;SDS011;48683;48.084;17.272;2022-07-15T02:10:53;2.50;;;2.20;;
62610;SDS011;48683;48.084;17.272;2022-07-15T02:13:18;2.30;;;2.07;;
62610;SDS011;48683;48.084;17.272;2022-07-15T02:15:44;2.97;;;2.07;;
62610;SDS011;48683;48.084;17.272;2022-07-15T02:18:09;4.63;;;2.40;;
62610;SDS011;48683;48.084;17.272;2022-07-15T02:20:36;2.58;;;2.25;;
62610;SDS011;48683;48.084;17.272;2022-07-15T02:23:02;3.00;;;2.30;;
62610;SDS011;48683;48.084;17.272;2022-07-15T02:25:28;4.33;;;3.27;;
62610;SDS011;48683;48.084;17.272;2022-07-15T02:27:55;3.97;;;3.58;;
62610;SDS011;48683;48.084;17.272;2022-07-15T02:30:23;3.28;;;2.95;;
62610;SDS011;48683;48.084;17.272;2022-07-15T02:32:49;3.33;;;2.97;;
62610;SDS011;48683;48.084;17.272;2022-07-15T02:35:15;3.93;;;2.50;;
62610;SDS011;48683;48.084;17.272;2022-07-15T02:37:41;2.38;;;2.17;;
62610;SDS011;48683;48.084;17.272;2022-07-15T02:40:07;3.30;;;2.27;;
62610;SDS011;48683;48.084;17.272;2022-07-15T02:42:33;2.92;;;2.47;;
62610;SDS011;48683;48.084;17.272;2022-07-15T02:44:59;3.37;;;2.67;;
62610;SDS011;48683;48.084;17.272;2022-07-15T02:47:24;4.87;;;2.57;;
62610;SDS011;48683;48.084;17.272;2022-07-15T02:49:49;3.23;;;2.90;;
62610;SDS011;48683;48.084;17.272;2022-07-15T02:52:15;2.80;;;2.60;;
62610;SDS011;48683;48.084;17.272;2022-07-15T02:54:40;4.00;;;2.80;;
62610;SDS011;48683;48.084;17.272;2022-07-15T02:57:05;4.37;;;3.07;;
62610;SDS011;48683;48.084;17.272;2022-07-15T02:59:31;5.00;;;2.93;;
62610;SDS011;48683;48.084;17.272;2022-07-15T03:01:56;3.80;;;2.60;;
62610;SDS011;48683;48.084;17.272;2022-07-15T03:04:21;4.63;;;3.17;;
62610;SDS011;48683;48.084;17.272;2022-07-15T03:06:47;5.50;;;3.40;;
62610;SDS011;48683;48.084;17.272;2022-07-15T03:09:12;3.67;;;3.37;;
62610;SDS011;48683;48.084;17.272;2022-07-15T03:11:39;5.93;;;3.05;;
62610;SDS011;48683;48.084;17.272;2022-07-15T03:14:04;4.77;;;3.50;;
62610;SDS011;48683;48.084;17.272;2022-07-15T03:16:29;3.83;;;2.63;;
62610;SDS011;48683;48.084;17.272;2022-07-15T03:18:55;4.67;;;3.47;;
62610;SDS011;48683;48.084;17.272;2022-07-15T03:21:20;4.63;;;3.30;;
62610;SDS011;48683;48.084;17.272;2022-07-15T03:23:46;6.07;;;3.35;;
62610;SDS011;48683;48.084;17.272;2022-07-15T03:26:12;4.70;;;3.87;;
62610;SDS011;48683;48.084;17.272;2022-07-15T03:28:37;6.73;;;4.53;;
62610;SDS011;48683;48.084;17.272;2022-07-15T03:31:03;5.73;;;4.87;;
62610;SDS011;48683;48.084;17.272;2022-07-15T03:33:28;6.97;;;4.53;;
62610;SDS011;48683;48.084;17.272;2022-07-15T03:35:54;6.43;;;4.93;;
62610;SDS011;48683;48.084;17.272;2022-07-15T03:38:19;6.60;;;5.13;;
62610;SDS011;48683;48.084;17.272;2022-07-15T03:40:44;7.90;;;5.10;;
62610;SDS011;48683;48.084;17.272;2022-07-15T03:43:10;6.77;;;5.60;;
62610;SDS011;48683;48.084;17.272;2022-07-15T03:45:35;6.90;;;5.43;;
62610;SDS011;48683;48.084;17.272;2022-07-15T03:48:01;5.93;;;4.93;;
62610;SDS011;48683;48.084;17.272;2022-07-15T03:50:27;5.78;;;5.00;;
62610;SDS011;48683;48.084;17.272;2022-07-15T03:52:52;5.03;;;4.57;;
62610;SDS011;48683;48.084;17.272;2022-07-15T03:55:17;7.33;;;5.30;;
62610;SDS011;48683;48.084;17.272;2022-07-15T03:57:43;6.00;;;5.23;;
62610;SDS011;48683;48.084;17.272;2022-07-15T04:00:08;6.23;;;4.90;;
62610;SDS011;48683;48.084;17.272;2022-07-15T04:02:34;5.53;;;5.00;;
62610;SDS011;48683;48.084;17.272;2022-07-15T04:04:59;5.17;;;4.63;;
62610;SDS011;48683;48.084;17.272;2022-07-15T04:07:25;5.47;;;4.77;;
62610;SDS011;48683;48.084;17.272;2022-07-15T04:09:50;7.97;;;5.17;;
62610;SDS011;48683;48.084;17.272;2022-07-15T04:12:16;5.50;;;4.93;;
62610;SDS011;48683;48.084;17.272;2022-07-15T04:14:41;5.50;;;4.70;;
62610;SDS011;48683;48.084;17.272;2022-07-15T04:17:06;8.13;;;4.60;;
62610;SDS011;48683;48.084;17.272;2022-07-15T04:19:32;9.87;;;5.30;;
62610;SDS011;48683;48.084;17.272;2022-07-15T04:21:57;5.90;;;5.30;;
62610;SDS011;48683;48.084;17.272;2022-07-15T04:24:22;6.40;;;4.80;;
62610;SDS011;48683;48.084;17.272;2022-07-15T04:26:48;5.40;;;4.83;;
62610;SDS011;48683;48.084;17.272;2022-07-15T04:29:13;7.07;;;4.43;;
62610;SDS011;48683;48.084;17.272;2022-07-15T04:31:38;8.30;;;5.13;;
62610;SDS011;48683;48.084;17.272;2022-07-15T04:34:04;5.27;;;4.77;;
62610;SDS011;48683;48.084;17.272;2022-07-15T04:36:29;7.77;;;5.50;;
62610;SDS011;48683;48.084;17.272;2022-07-15T04:38:54;6.53;;;5.23;;
62610;SDS011;48683;48.084;17.272;2022-07-15T04:41:20;7.57;;;5.80;;
62610;SDS011;48683;48.084;17.272;2022-07-15T04:43:45;7.20;;;5.33;;
62610;SDS011;48683;48.084;17.272;2022-07-15T04:46:10;7.10;;;6.40;;
62610;SDS011;48683;48.084;17.272;2022-07-15T04:48:36;6.20;;;5.30;;
62610;SDS011;48683;48.084;17.272;2022-07-15T04:51:20;6.95;;;5.95;;
62610;SDS011;48683;48.084;17.272;2022-07-15T04:53:45;8.23;;;5.70;;
62610;SDS011;48683;48.084;17.272;2022-07-15T04:56:11;10.00;;;6.53;;
62610;SDS011;48683;48.084;17.272;2022-07-15T04:58:37;6.68;;;6.00;;
62610;SDS011;48683;48.084;17.272;2022-07-15T05:01:03;7.70;;;6.27;;
62610;SDS011;48683;48.084;17.272;2022-07-15T05:03:28;6.83;;;6.13;;
62610;SDS011;48683;48.084;17.272;2022-07-15T05:05:53;7.20;;;6.03;;
62610;SDS011;48683;48.084;17.272;2022-07-15T05:08:19;8.23;;;6.40;;
62610;SDS011;48683;48.084;17.272;2022-07-15T05:10:45;7.18;;;6.47;;
62610;SDS011;48683;48.084;17.272;2022-07-15T05:13:11;9.60;;;7.13;;
62610;SDS011;48683;48.084;17.272;2022-07-15T05:15:36;9.40;;;6.33;;
62610;SDS011;48683;48.084;17.272;2022-07-15T05:18:02;9.43;;;6.47;;
62610;SDS011;48683;48.084;17.272;2022-07-15T05:20:27;6.60;;;6.00;;
62610;SDS011;48683;48.084;17.272;2022-07-15T05:22:52;7.10;;;6.40;;
62610;SDS011;48683;48.084;17.272;2022-07-15T05:25:18;7.90;;;6.47;;
62610;SDS011;48683;48.084;17.272;2022-07-15T05:27:43;7.13;;;6.23;;
62610;SDS011;48683;48.084;17.272;2022-07-15T05:30:09;7.37;;;6.47;;
62610;SDS011;48683;48.084;17.272;2022-07-15T05:32:37;8.05;;;6.70;;
62610;SDS011;48683;48.084;17.272;2022-07-15T05:35:02;7.27;;;6.47;;
62610;SDS011;48683;48.084;17.272;2022-07-15T05:37:28;9.13;;;7.03;;
62610;SDS011;48683;48.084;17.272;2022-07-15T05:39:53;8.07;;;6.90;;
62610;SDS011;48683;48.084;17.272;2022-07-15T05:42:19;8.67;;;6.37;;
62610;SDS011;48683;48.084;17.272;2022-07-15T05:44:45;7.22;;;6.53;;
62610;SDS011;48683;48.084;17.272;2022-07-15T05:47:10;9.27;;;6.77;;
62610;SDS011;48683;48.084;17.272;2022-07-15T05:49:36;8.33;;;6.47;;
62610;SDS011;48683;48.084;17.272;2022-07-15T05:52:01;8.63;;;6.47;;
62610;SDS011;48683;48.084;17.272;2022-07-15T05:54:26;8.97;;;5.97;;
62610;SDS011;48683;48.084;17.272;2022-07-15T05:56:52;7.77;;;6.07;;
62610;SDS011;48683;48.084;17.272;2022-07-15T05:59:17;7.97;;;6.13;;
62610;SDS011;48683;48.084;17.272;2022-07-15T06:01:42;7.07;;;5.90;;
62610;SDS011;48683;48.084;17.272;2022-07-15T06:04:08;7.63;;;6.03;;
62610;SDS011;48683;48.084;17.272;2022-07-15T06:06:33;6.77;;;5.80;;
62610;SDS011;48683;48.084;17.272;2022-07-15T06:08:59;6.40;;;5.80;;
62610;SDS011;48683;48.084;17.272;2022-07-15T06:11:24;7.00;;;5.40;;
62610;SDS011;48683;48.084;17.272;2022-07-15T06:13:50;9.60;;;6.73;;
62610;SDS011;48683;48.084;17.272;2022-07-15T06:16:15;8.17;;;6.57;;
62610;SDS011;48683;48.084;17.272;2022-07-15T06:18:41;7.17;;;6.03;;
62610;SDS011;48683;48.084;17.272;2022-07-15T06:21:07;7.00;;;5.70;;
62610;SDS011;48683;48.084;17.272;2022-07-15T06:23:32;10.77;;;5.87;;
62610;SDS011;48683;48.084;17.272;2022-07-15T06:25:58;8.30;;;6.17;;
62610;SDS011;48683;48.084;17.272;2022-07-15T06:28:23;6.23;;;5.60;;
62610;SDS011;48683;48.084;17.272;2022-07-15T06:30:48;6.43;;;5.13;;
62610;SDS011;48683;48.084;17.272;2022-07-15T06:33:14;6.70;;;5.23;;
62610;SDS011;48683;48.084;17.272;2022-07-15T06:35:39;5.73;;;5.13;;
62610;SDS011;48683;48.084;17.272;2022-07-15T06:38:04;6.03;;;5.17;;
62610;SDS011;48683;48.084;17.272;2022-07-15T06:40:29;6.87;;;5.57;;
62610;SDS011;48683;48.084;17.272;2022-07-15T06:42:55;8.03;;;5.20;;
62610;SDS011;48683;48.084;17.272;2022-07-15T06:45:20;6.77;;;4.90;;
62610;SDS011;48683;48.084;17.272;2022-07-15T06:47:46;6.10;;;4.63;;
62610;SDS011;48683;48.084;17.272;2022-07-15T06:50:11;6.83;;;4.87;;
62610;SDS011;48683;48.084;17.272;2022-07-15T06:52:37;9.93;;;5.40;;
62610;SDS011;48683;48.084;17.272;2022-07-15T06:55:02;5.83;;;4.03;;
62610;SDS011;48683;48.084;17.272;2022-07-15T06:57:28;6.72;;;4.32;;
62610;SDS011;48683;48.084;17.272;2022-07-15T06:59:54;6.23;;;4.53;;
62610;SDS011;48683;48.084;17.272;2022-07-15T07:02:20;6.63;;;4.27;;
62610;SDS011;48683;48.084;17.272;2022-07-15T07:04:45;5.87;;;4.00;;
62610;SDS011;48683;48.084;17.272;2022-07-15T07:07:10;5.83;;;4.50;;
62610;SDS011;48683;48.084;17.272;2022-07-15T07:09:36;5.77;;;4.30;;
62610;SDS011;48683;48.084;17.272;2022-07-15T07:12:01;4.63;;;4.23;;
62610;SDS011;48683;48.084;17.272;2022-07-15T07:14:27;5.50;;;3.97;;
62610;SDS011;48683;48.084;17.272;2022-07-15T07:16:53;5.80;;;3.80;;
62610;SDS011;48683;48.084;17.272;2022-07-15T07:19:18;4.20;;;3.80;;
62610;SDS011;48683;48.084;17.272;2022-07-15T07:21:43;6.23;;;4.17;;
62610;SDS011;48683;48.084;17.272;2022-07-15T07:24:09;6.73;;;4.50;;
62610;SDS011;48683;48.084;17.272;2022-07-15T07:26:34;6.50;;;3.87;;
62610;SDS011;48683;48.084;17.272;2022-07-15T07:29:00;6.23;;;3.57;;
62610;SDS011;48683;48.084;17.272;2022-07-15T07:31:25;7.07;;;3.87;;
62610;SDS011;48683;48.084;17.272;2022-07-15T07:33:55;5.45;;;3.47;;
62610;SDS011;48683;48.084;17.272;2022-07-15T07:36:22;5.70;;;3.78;;
62610;SDS011;48683;48.084;17.272;2022-07-15T07:38:48;7.03;;;3.47;;
62610;SDS011;48683;48.084;17.272;2022-07-15T07:41:13;6.07;;;4.00;;
62610;SDS011;48683;48.084;17.272;2022-07-15T07:43:39;5.70;;;3.67;;
62610;SDS011;48683;48.084;17.272;2022-07-15T07:46:04;5.17;;;3.90;;
62610;SDS011;48683;48.084;17.272;2022-07-15T07:48:30;6.40;;;4.07;;
62610;SDS011;48683;48.084;17.272;2022-07-15T07:50:55;7.43;;;3.57;;
62610;SDS011;48683;48.084;17.272;2022-07-15T07:53:21;7.88;;;3.60;;
62610;SDS011;48683;48.084;17.272;2022-07-15T07:55:47;8.67;;;3.37;;
62610;SDS011;48683;48.084;17.272;2022-07-15T07:58:13;3.83;;;3.35;;
62610;SDS011;48683;48.084;17.272;2022-07-15T08:00:40;8.13;;;3.92;;
62610;SDS011;48683;48.084;17.272;2022-07-15T08:03:06;6.93;;;3.63;;
62610;SDS011;48683;48.084;17.272;2022-07-15T08:05:31;6.57;;;3.33;;
62610;SDS011;48683;48.084;17.272;2022-07-15T08:08:10;4.97;;;2.50;;
62610;SDS011;48683;48.084;17.272;2022-07-15T08:10:38;4.82;;;2.53;;
62610;SDS011;48683;48.084;17.272;2022-07-15T08:13:04;3.75;;;3.00;;
62610;SDS011;48683;48.084;17.272;2022-07-15T08:15:29;5.37;;;3.30;;
62610;SDS011;48683;48.084;17.272;2022-07-15T08:17:55;5.47;;;3.40;;
62610;SDS011;48683;48.084;17.272;2022-07-15T08:20:20;5.80;;;3.10;;
62610;SDS011;48683;48.084;17.272;2022-07-15T08:22:46;6.73;;;3.37;;
62610;SDS011;48683;48.084;17.272;2022-07-15T08:25:11;4.07;;;3.17;;
62610;SDS011;48683;48.084;17.272;2022-07-15T08:27:36;5.57;;;2.90;;
62610;SDS011;48683;48.084;17.272;2022-07-15T08:30:02;4.70;;;3.30;;
62610;SDS011;48683;48.084;17.272;2022-07-15T08:32:28;4.38;;;2.88;;
62610;SDS011;48683;48.084;17.272;2022-07-15T08:34:54;5.83;;;3.00;;
62610;SDS011;48683;48.084;17.272;2022-07-15T08:37:19;4.00;;;2.87;;
62610;SDS011;48683;48.084;17.272;2022-07-15T08:39:44;5.27;;;3.50;;
62610;SDS011;48683;48.084;17.272;2022-07-15T08:42:10;4.47;;;3.17;;
62610;SDS011;48683;48.084;17.272;2022-07-15T08:44:35;9.27;;;2.93;;
62610;SDS011;48683;48.084;17.272;2022-07-15T08:47:02;4.37;;;2.73;;
62610;SDS011;48683;48.084;17.272;2022-07-15T08:49:30;5.22;;;2.90;;
62610;SDS011;48683;48.084;17.272;2022-07-15T08:51:56;5.72;;;2.97;;
62610;SDS011;48683;48.084;17.272;2022-07-15T08:54:25;6.15;;;3.13;;
62610;SDS011;48683;48.084;17.272;2022-07-15T08:56:50;5.32;;;3.00;;
62610;SDS011;48683;48.084;17.272;2022-07-15T08:59:16;5.10;;;2.63;;
62610;SDS011;48683;48.084;17.272;2022-07-15T09:01:46;4.82;;;2.80;;
62610;SDS011;48683;48.084;17.272;2022-07-15T09:04:13;5.07;;;2.90;;
62610;SDS011;48683;48.084;17.272;2022-07-15T09:06:40;3.97;;;2.50;;
62610;SDS011;48683;48.084;17.272;2022-07-15T09:11:57;3.15;;;2.30;;
62610;SDS011;48683;48.084;17.272;2022-07-15T09:14:23;13.30;;;3.00;;
62610;SDS011;48683;48.084;17.272;2022-07-15T09:16:57;4.72;;;3.35;;
62610;SDS011;48683;48.084;17.272;2022-07-15T09:19:33;4.25;;;2.80;;
62610;SDS011;48683;48.084;17.272;2022-07-15T09:22:21;4.72;;;2.40;;
62610;SDS011;48683;48.084;17.272;2022-07-15T09:24:50;5.40;;;2.33;;
62610;SDS011;48683;48.084;17.272;2022-07-15T09:27:29;5.07;;;2.13;;
62610;SDS011;48683;48.084;17.272;2022-07-15T09:29:58;4.05;;;1.80;;
62610;SDS011;48683;48.084;17.272;2022-07-15T09:33:00;5.78;;;2.20;;
62610;SDS011;48683;48.084;17.272;2022-07-15T09:35:46;4.55;;;1.88;;
62610;SDS011;48683;48.084;17.272;2022-07-15T09:38:26;4.80;;;2.00;;
62610;SDS011;48683;48.084;17.272;2022-07-15T09:40:52;7.40;;;1.67;;
62610;SDS011;48683;48.084;17.272;2022-07-15T09:43:17;1.93;;;1.50;;
62610;SDS011;48683;48.084;17.272;2022-07-15T09:45:42;4.37;;;1.90;;
62610;SDS011;48683;48.084;17.272;2022-07-15T09:48:08;6.97;;;2.10;;
62610;SDS011;48683;48.084;17.272;2022-07-15T09:50:37;5.97;;;2.15;;
62610;SDS011;48683;48.084;17.272;2022-07-15T09:53:03;3.65;;;1.70;;
62610;SDS011;48683;48.084;17.272;2022-07-15T09:55:34;6.32;;;2.03;;
62610;SDS011;48683;48.084;17.272;2022-07-15T09:58:02;4.32;;;2.05;;
62610;SDS011;48683;48.084;17.272;2022-07-15T10:00:30;3.53;;;1.92;;
62610;SDS011;48683;48.084;17.272;2022-07-15T10:02:55;5.55;;;1.90;;
62610;SDS011;48683;48.084;17.272;2022-07-15T10:05:20;3.30;;;1.83;;
62610;SDS011;48683;48.084;17.272;2022-07-15T10:07:46;4.10;;;1.80;;
62610;SDS011;48683;48.084;17.272;2022-07-15T11:54:02;4.93;;;1.98;;
62610;SDS011;48683;48.084;17.272;2022-07-15T11:56:27;3.40;;;1.60;;
62610;SDS011;48683;48.084;17.272;2022-07-15T11:58:54;2.03;;;1.20;;
62610;SDS011;48683;48.084;17.272;2022-07-15T12:01:22;4.25;;;1.75;;
62610;SDS011;48683;48.084;17.272;2022-07-15T12:03:50;2.75;;;1.67;;
62610;SDS011;48683;48.084;17.272;2022-07-15T12:06:17;2.55;;;1.58;;
62610;SDS011;48683;48.084;17.272;2022-07-15T12:08:52;2.25;;;1.58;;
62610;SDS011;48683;48.084;17.272;2022-07-15T12:11:26;3.10;;;1.83;;
62610;SDS011;48683;48.084;17.272;2022-07-15T12:14:02;4.28;;;1.88;;
62610;SDS011;48683;48.084;17.272;2022-07-15T12:16:32;5.25;;;1.65;;
62610;SDS011;48683;48.084;17.272;2022-07-15T12:21:35;3.60;;;1.67;;
62610;SDS011;48683;48.084;17.272;2022-07-15T12:24:03;3.80;;;1.70;;
62610;SDS011;48683;48.084;17.272;2022-07-15T12:26:32;3.63;;;1.65;;
62610;SDS011;48683;48.084;17.272;2022-07-15T12:29:00;3.80;;;1.70;;
62610;SDS011;48683;48.084;17.272;2022-07-15T12:31:28;1.67;;;1.55;;
62610;SDS011;48683;48.084;17.272;2022-07-15T12:33:57;5.95;;;2.03;;
62610;SDS011;48683;48.084;17.272;2022-07-15T12:36:30;4.07;;;2.00;;
62610;SDS011;48683;48.084;17.272;2022-07-15T12:39:12;4.57;;;1.70;;
62610;SDS011;48683;48.084;17.272;2022-07-15T12:41:40;3.33;;;1.83;;
62610;SDS011;48683;48.084;17.272;2022-07-15T12:44:07;4.53;;;1.70;;
62610;SDS011;48683;48.084;17.272;2022-07-15T12:46:54;5.05;;;1.80;;
62610;SDS011;48683;48.084;17.272;2022-07-15T12:52:15;2.90;;;1.90;;
62610;SDS011;48683;48.084;17.272;2022-07-15T12:55:18;2.55;;;1.80;;
62610;SDS011;48683;48.084;17.272;2022-07-15T12:57:45;3.33;;;1.85;;
62610;SDS011;48683;48.084;17.272;2022-07-15T13:00:13;6.25;;;2.20;;
62610;SDS011;48683;48.084;17.272;2022-07-15T13:05:47;2.63;;;1.60;;
62610;SDS011;48683;48.084;17.272;2022-07-15T13:08:24;3.08;;;1.52;;
62610;SDS011;48683;48.084;17.272;2022-07-15T13:10:56;2.35;;;1.50;;
62610;SDS011;48683;48.084;17.272;2022-07-15T13:13:25;1.88;;;1.67;;
62610;SDS011;48683;48.084;17.272;2022-07-15T13:15:51;2.83;;;1.63;;
62610;SDS011;48683;48.084;17.272;2022-07-15T13:18:17;3.20;;;1.80;;
62610;SDS011;48683;48.084;17.272;2022-07-15T13:20:44;3.83;;;1.83;;
62610;SDS011;48683;48.084;17.272;2022-07-15T13:23:11;2.80;;;1.90;;
62610;SDS011;48683;48.084;17.272;2022-07-15T13:25:36;3.00;;;1.90;;
62610;SDS011;48683;48.084;17.272;2022-07-15T13:28:05;2.03;;;1.60;;
62610;SDS011;48683;48.084;17.272;2022-07-15T13:35:22;3.50;;;1.95;;
62610;SDS011;48683;48.084;17.272;2022-07-15T13:37:47;2.80;;;1.83;;
62610;SDS011;48683;48.084;17.272;2022-07-15T13:40:13;2.60;;;1.60;;
62610;SDS011;48683;48.084;17.272;2022-07-15T13:42:39;3.38;;;1.90;;
62610;SDS011;48683;48.084;17.272;2022-07-15T13:45:06;4.85;;;1.90;;
62610;SDS011;48683;48.084;17.272;2022-07-15T13:47:32;2.15;;;1.55;;
62610;SDS011;48683;48.084;17.272;2022-07-15T13:49:58;3.90;;;1.97;;
62610;SDS011;48683;48.084;17.272;2022-07-15T13:52:47;2.45;;;1.85;;
62610;SDS011;48683;48.084;17.272;2022-07-15T13:55:13;3.78;;;2.13;;
62610;SDS011;48683;48.084;17.272;2022-07-15T13:57:40;3.53;;;1.83;;
62610;SDS011;48683;48.084;17.272;2022-07-15T14:00:06;3.03;;;1.80;;
62610;SDS011;48683;48.084;17.272;2022-07-15T14:02:36;4.10;;;1.90;;
62610;SDS011;48683;48.084;17.272;2022-07-15T14:05:02;4.45;;;2.00;;
62610;SDS011;48683;48.084;17.272;2022-07-15T14:07:27;2.73;;;1.90;;
62610;SDS011;48683;48.084;17.272;2022-07-15T14:09:53;2.57;;;1.77;;
62610;SDS011;48683;48.084;17.272;2022-07-15T14:12:18;3.30;;;1.63;;
62610;SDS011;48683;48.084;17.272;2022-07-15T14:14:44;3.50;;;2.10;;
62610;SDS011;48683;48.084;17.272;2022-07-15T14:17:10;2.93;;;1.60;;
62610;SDS011;48683;48.084;17.272;2022-07-15T14:19:35;3.47;;;2.10;;
62610;SDS011;48683;48.084;17.272;2022-07-15T14:22:01;3.10;;;1.90;;
62610;SDS011;48683;48.084;17.272;2022-07-15T14:24:26;3.80;;;1.90;;
62610;SDS011;48683;48.084;17.272;2022-07-15T14:26:51;4.83;;;2.03;;
62610;SDS011;48683;48.084;17.272;2022-07-15T14:29:16;2.97;;;2.13;;
62610;SDS011;48683;48.084;17.272;2022-07-15T14:31:42;4.85;;;2.20;;
62610;SDS011;48683;48.084;17.272;2022-07-15T14:34:08;3.30;;;2.03;;
62610;SDS011;48683;48.084;17.272;2022-07-15T14:36:33;3.67;;;2.67;;
62610;SDS011;48683;48.084;17.272;2022-07-15T14:38:59;4.57;;;2.03;;
62610;SDS011;48683;48.084;17.272;2022-07-15T14:41:24;4.23;;;2.00;;
62610;SDS011;48683;48.084;17.272;2022-07-15T14:43:50;3.10;;;2.17;;
62610;SDS011;48683;48.084;17.272;2022-07-15T14:46:15;4.20;;;1.70;;
62610;SDS011;48683;48.084;17.272;2022-07-15T14:48:40;3.10;;;2.00;;
62610;SDS011;48683;48.084;17.272;2022-07-15T14:51:06;2.13;;;1.93;;
62610;SDS011;48683;48.084;17.272;2022-07-15T14:53:31;2.40;;;2.20;;
62610;SDS011;48683;48.084;17.272;2022-07-15T14:55:56;4.33;;;2.10;;
62610;SDS011;48683;48.084;17.272;2022-07-15T14:58:22;4.22;;;2.22;;
62610;SDS011;48683;48.084;17.272;2022-07-15T15:00:48;3.13;;;1.90;;
62610;SDS011;48683;48.084;17.272;2022-07-15T15:03:14;2.88;;;2.10;;
62610;SDS011;48683;48.084;17.272;2022-07-15T15:05:40;4.93;;;2.17;;
62610;SDS011;48683;48.084;17.272;2022-07-15T15:08:06;5.38;;;2.17;;
62610;SDS011;48683;48.084;17.272;2022-07-15T15:10:31;2.07;;;1.80;;
62610;SDS011;48683;48.084;17.272;2022-07-15T15:12:56;5.17;;;2.20;;
62610;SDS011;48683;48.084;17.272;2022-07-15T15:15:22;2.67;;;2.17;;
62610;SDS011;48683;48.084;17.272;2022-07-15T15:17:48;3.20;;;2.03;;
62610;SDS011;48683;48.084;17.272;2022-07-15T15:20:15;2.92;;;2.05;;
62610;SDS011;48683;48.084;17.272;2022-07-15T15:22:40;2.80;;;1.90;;
62610;SDS011;48683;48.084;17.272;2022-07-15T15:25:05;1.93;;;1.60;;
62610;SDS011;48683;48.084;17.272;2022-07-15T15:27:32;3.60;;;2.08;;
62610;SDS011;48683;48.084;17.272;2022-07-15T15:29:58;3.45;;;2.10;;
62610;SDS011;48683;48.084;17.272;2022-07-15T15:32:23;5.28;;;1.90;;
62610;SDS011;48683;48.084;17.272;2022-07-15T15:34:49;2.53;;;2.10;;
62610;SDS011;48683;48.084;17.272;2022-07-15T15:37:15;1.83;;;1.63;;
62610;SDS011;48683;48.084;17.272;2022-07-15T15:39:41;1.90;;;1.70;;
62610;SDS011;48683;48.084;17.272;2022-07-15T15:42:07;2.20;;;2.00;;
62610;SDS011;48683;48.084;17.272;2022-07-15T15:44:33;2.70;;;2.03;;
62610;SDS011;48683;48.084;17.272;2022-07-15T15:46:58;2.20;;;2.00;;
62610;SDS011;48683;48.084;17.272;2022-07-15T15:49:24;6.73;;;2.10;;
62610;SDS011;48683;48.084;17.272;2022-07-15T15:51:49;3.03;;;2.00;;
62610;SDS011;48683;48.084;17.272;2022-07-15T15:54:14;4.33;;;2.00;;
62610;SDS011;48683;48.084;17.272;2022-07-15T15:56:40;4.15;;;2.20;;
62610;SDS011;48683;48.084;17.272;2022-07-15T15:59:06;3.20;;;1.70;;
62610;SDS011;48683;48.084;17.272;2022-07-15T16:01:32;2.63;;;2.00;;
62610;SDS011;48683;48.084;17.272;2022-07-15T16:03:57;2.90;;;2.10;;
62610;SDS011;48683;48.084;17.272;2022-07-15T16:06:23;2.67;;;1.87;;
62610;SDS011;48683;48.084;17.272;2022-07-15T16:08:49;2.53;;;2.10;;
62610;SDS011;48683;48.084;17.272;2022-07-15T16:11:14;3.50;;;1.75;;
62610;SDS011;48683;48.084;17.272;2022-07-15T16:13:40;3.10;;;2.00;;
62610;SDS011;48683;48.084;17.272;2022-07-15T16:16:05;2.77;;;1.83;;
62610;SDS011;48683;48.084;17.272;2022-07-15T16:18:31;4.50;;;1.83;;
62610;SDS011;48683;48.084;17.272;2022-07-15T16:20:57;2.15;;;1.83;;
62610;SDS011;48683;48.084;17.272;2022-07-15T16:23:22;4.87;;;2.10;;
62610;SDS011;48683;48.084;17.272;2022-07-15T16:25:48;2.97;;;1.90;;
62610;SDS011;48683;48.084;17.272;2022-07-15T16:28:14;3.30;;;2.10;;
62610;SDS011;48683;48.084;17.272;2022-07-15T16:30:40;3.10;;;1.60;;